Time;durP1;ratioP1;P1;durP2;ratioP2;P2;SDS_P1;SDS_P2;PMS_P1;PMS_P2;Temp;Humidity;BMP_temperature;BMP_pressure;BME280_temperature;BME280_humidity;BME280_pressure;Samples;Min_cycle;Max_cycle;Signal;HPM_P1;HPM_P2
2023/01/04 00:00:18;;;;;;;10.68;3.20;;;;;;;7.88;100.00;101766.88;4972283;28;20102;-69
2023/01/04 00:02:43;;;;;;;7.90;3.00;;;;;;;7.86;100.00;101768.09;4972942;28;20041;-68
2023/01/04 00:05:08;;;;;;;7.60;3.00;;;;;;;7.84;100.00;101772.84;4974452;28;20493;-68
2023/01/04 00:07:33;;;;;;;12.13;3.30;;;;;;;7.87;100.00;101754.44;4974378;28;20118;-68
2023/01/04 00:09:59;;;;;;;8.52;2.90;;;;;;;7.83;100.00;101741.50;4973199;28;20360;-68
2023/01/04 00:12:24;;;;;;;11.73;3.38;;;;;;;7.83;100.00;101747.72;4974423;28;20424;-68
2023/01/04 00:14:49;;;;;;;8.57;3.35;;;;;;;7.80;100.00;101740.00;4973303;28;20382;-68
2023/01/04 00:17:15;;;;;;;11.40;3.30;;;;;;;7.81;100.00;101728.22;4974346;28;20045;-68
2023/01/04 00:19:40;;;;;;;9.73;3.17;;;;;;;7.78;100.00;101736.69;4973700;28;20830;-68
2023/01/04 00:22:05;;;;;;;11.85;3.15;;;;;;;7.77;100.00;101727.72;4973979;28;20117;-68
2023/01/04 00:24:31;;;;;;;9.85;3.38;;;;;;;7.78;100.00;101718.63;4973602;28;20031;-68
2023/01/04 00:26:56;;;;;;;7.45;2.88;;;;;;;7.80;100.00;101715.75;4974387;28;20082;-68
2023/01/04 00:29:22;;;;;;;10.30;3.33;;;;;;;7.79;100.00;101719.50;4973908;28;20027;-68
2023/01/04 00:31:47;;;;;;;10.13;2.75;;;;;;;7.80;100.00;101694.19;4973668;28;20093;-68
2023/01/04 00:34:14;;;;;;;10.70;2.97;;;;;;;7.81;100.00;101703.97;4973355;28;20482;-69
2023/01/04 00:36:40;;;;;;;9.00;3.17;;;;;;;7.81;100.00;101679.72;4974236;28;20085;-68
2023/01/04 00:39:06;;;;;;;13.60;3.42;;;;;;;7.81;100.00;101698.56;4973234;28;20030;-68
2023/01/04 00:41:45;;;;;;;10.48;3.10;;;;;;;7.80;100.00;101688.81;4972140;28;20045;-68
2023/01/04 00:44:11;;;;;;;10.88;3.33;;;;;;;7.84;100.00;101690.13;4973939;28;20478;-68
2023/01/04 00:46:37;;;;;;;7.18;2.97;;;;;;;7.84;100.00;101692.81;4974100;28;20046;-68
2023/01/04 00:49:04;;;;;;;8.35;2.85;;;;;;;7.84;100.00;101676.66;4973878;28;20027;-68
2023/01/04 00:51:30;;;;;;;10.05;3.10;;;;;;;7.84;100.00;101671.25;4973238;28;20142;-68
2023/01/04 00:53:57;;;;;;;6.88;3.00;;;;;;;7.87;100.00;101678.13;4974005;28;20042;-69
2023/01/04 00:56:22;;;;;;;7.40;2.80;;;;;;;7.87;100.00;101668.19;4972707;28;20038;-68
2023/01/04 00:58:48;;;;;;;7.05;2.60;;;;;;;7.92;100.00;101659.53;4973871;28;20031;-69
2023/01/04 01:01:13;;;;;;;7.07;2.78;;;;;;;7.92;100.00;101660.38;4970161;28;20482;-69
2023/01/04 01:03:38;;;;;;;6.43;2.45;;;;;;;7.95;100.00;101656.47;4973159;28;20050;-68
2023/01/04 01:06:06;;;;;;;8.15;2.50;;;;;;;7.94;100.00;101662.88;4973541;28;20122;-68
2023/01/04 01:08:32;;;;;;;7.15;2.47;;;;;;;7.96;100.00;101650.88;4973466;28;20041;-68
2023/01/04 01:11:03;;;;;;;7.88;2.30;;;;;;;7.98;100.00;101646.13;4970897;28;20486;-68
2023/01/04 01:13:28;;;;;;;8.32;2.60;;;;;;;7.99;100.00;101645.13;4973531;28;20031;-69
2023/01/04 01:15:53;;;;;;;8.30;2.20;;;;;;;8.01;100.00;101641.41;4973983;28;20023;-68
2023/01/04 01:18:19;;;;;;;6.15;2.60;;;;;;;8.04;100.00;101646.44;4973751;28;20039;-68
2023/01/04 01:20:44;;;;;;;6.97;2.80;;;;;;;8.05;100.00;101642.72;4972704;28;20474;-69
2023/01/04 01:23:14;;;;;;;7.60;2.13;;;;;;;8.04;100.00;101641.84;4973439;28;20031;-68
2023/01/04 01:25:41;;;;;;;4.90;2.22;;;;;;;8.04;100.00;101638.34;4972656;28;20039;-68
2023/01/04 01:28:07;;;;;;;7.03;2.30;;;;;;;8.06;100.00;101644.38;4973357;28;20089;-68
2023/01/04 01:30:33;;;;;;;5.50;2.05;;;;;;;8.08;100.00;101636.94;4972845;28;20031;-68
2023/01/04 01:32:59;;;;;;;5.53;2.20;;;;;;;8.07;100.00;101636.09;4973586;28;20029;-69
2023/01/04 01:35:25;;;;;;;6.40;2.28;;;;;;;8.09;100.00;101633.19;4973359;28;20078;-68
2023/01/04 01:37:50;;;;;;;4.55;2.47;;;;;;;8.08;100.00;101628.84;4973582;28;20482;-68
2023/01/04 01:40:16;;;;;;;4.60;2.17;;;;;;;8.09;100.00;101635.91;4971186;28;20034;-69
2023/01/04 01:42:41;;;;;;;5.93;2.30;;;;;;;8.06;100.00;101620.09;4972571;28;20062;-68
2023/01/04 01:45:25;;;;;;;6.32;2.40;;;;;;;8.08;100.00;101621.59;4973049;28;20033;-69
2023/01/04 01:47:50;;;;;;;6.13;2.10;;;;;;;8.10;100.00;101616.00;4977151;28;20497;-68
2023/01/04 01:50:23;;;;;;;6.95;2.22;;;;;;;8.09;100.00;101622.41;4976415;28;20064;-69
2023/01/04 01:52:49;;;;;;;4.55;2.15;;;;;;;8.10;100.00;101629.50;4977272;28;20031;-68
2023/01/04 01:55:16;;;;;;;6.50;2.17;;;;;;;8.10;100.00;101616.00;4976688;28;20046;-69
2023/01/04 01:57:43;;;;;;;6.47;2.10;;;;;;;8.11;100.00;101617.69;4977140;28;20031;-69
2023/01/04 02:00:11;;;;;;;6.50;2.17;;;;;;;8.11;100.00;101606.91;4975833;28;20031;-68
2023/01/04 02:02:50;;;;;;;4.00;2.30;;;;;;;8.13;100.00;101605.69;4968823;28;20050;-68
2023/01/04 02:05:18;;;;;;;4.40;2.00;;;;;;;8.16;100.00;101602.59;4975447;28;20069;-68
2023/01/04 02:07:44;;;;;;;4.63;2.00;;;;;;;8.18;100.00;101615.06;4976984;28;20178;-68
2023/01/04 02:10:09;;;;;;;4.63;1.92;;;;;;;8.18;100.00;101610.50;4974807;28;20083;-68
2023/01/04 02:12:35;;;;;;;2.55;1.55;;;;;;;8.20;100.00;101623.78;4976897;28;20478;-69
2023/01/04 02:15:00;;;;;;;4.47;1.85;;;;;;;8.23;100.00;101612.63;4976769;28;20042;-68
2023/01/04 02:17:47;;;;;;;3.70;2.03;;;;;;;8.22;100.00;101633.38;4975624;28;20117;-73
2023/01/04 02:20:31;;;;;;;2.90;1.75;;;;;;;8.26;100.00;101634.66;4975798;28;20035;-70
2023/01/04 02:23:40;;;;;;;3.40;1.70;;;;;;;8.29;100.00;101612.72;4976764;28;20078;-69
2023/01/04 02:26:26;;;;;;;3.67;1.90;;;;;;;8.31;100.00;101620.59;4976458;28;20030;-69
2023/01/04 02:29:28;;;;;;;4.53;1.35;;;;;;;8.35;100.00;101616.50;4976357;28;20423;-68
2023/01/04 02:31:57;;;;;;;3.85;1.65;;;;;;;8.33;100.00;101613.16;4974312;28;20088;-68
2023/01/04 02:34:48;;;;;;;3.33;1.50;;;;;;;8.39;100.00;101604.28;4976277;28;20030;-68
2023/01/04 02:37:26;;;;;;;5.72;1.85;;;;;;;8.41;100.00;101593.31;4974689;28;20394;-68
2023/01/04 02:40:17;;;;;;;4.25;1.40;;;;;;;8.43;100.00;101577.78;4975054;28;20038;-69
2023/01/04 02:45:40;;;;;;;4.32;1.33;;;;;;;8.47;100.00;101566.44;4975137;28;20066;-68
2023/01/04 02:50:59;;;;;;;2.15;1.30;;;;;;;8.48;100.00;101570.81;4976217;28;20101;-69
2023/01/04 02:53:35;;;;;;;2.33;1.25;;;;;;;8.50;100.00;101559.84;4975990;28;20074;-68
2023/01/04 02:56:36;;;;;;;1.83;1.38;;;;;;;8.51;100.00;101561.50;4974948;28;20042;-68
2023/01/04 02:59:38;;;;;;;2.33;1.40;;;;;;;8.55;100.00;101557.38;4968992;28;20043;-68
2023/01/04 03:08:44;;;;;;;2.83;1.33;;;;;;;8.59;100.00;101552.44;4956264;29;20462;-68
2023/01/04 03:14:02;;;;;;;1.20;1.10;;;;;;;8.56;100.00;101534.78;4956503;29;20050;-69
2023/01/04 03:16:30;;;;;;;1.40;1.25;;;;;;;8.61;100.00;101515.31;4965155;28;20034;-69
2023/01/04 03:18:57;;;;;;;1.77;1.20;;;;;;;8.58;100.00;101524.63;4975715;28;20636;-69
2023/01/04 03:21:26;;;;;;;3.25;1.38;;;;;;;8.62;100.00;101520.50;4975489;28;20370;-68
2023/01/04 03:35:23;;;;;;;2.55;1.50;;;;;;;8.72;100.00;101519.34;4974978;28;20046;-68
2023/01/04 03:43:08;;;;;;;3.00;1.90;;;;;;;8.79;100.00;101520.22;4974552;28;20509;-69
2023/01/04 03:50:31;;;;;;;3.30;1.60;;;;;;;8.80;100.00;101489.47;4974808;28;20472;-69
2023/01/04 03:52:58;;;;;;;2.05;1.77;;;;;;;8.82;100.00;101498.25;4975198;28;20027;-68
2023/01/04 03:55:25;;;;;;;1.95;1.80;;;;;;;8.83;100.00;101484.53;4974818;28;20035;-68
2023/01/04 03:57:51;;;;;;;3.08;2.00;;;;;;;8.91;100.00;101485.41;4973410;28;20039;-69
2023/01/04 04:00:18;;;;;;;3.45;2.00;;;;;;;8.89;100.00;101482.91;4973385;28;20033;-69
2023/01/04 04:02:46;;;;;;;4.18;2.05;;;;;;;8.91;100.00;101466.50;4972330;28;20067;-68
2023/01/04 04:10:51;;;;;;;4.47;2.10;;;;;;;9.00;100.00;101468.03;4974710;28;20176;-68
2023/01/04 04:13:17;;;;;;;4.78;1.80;;;;;;;9.01;100.00;101469.69;4973182;28;20109;-68
2023/01/04 04:15:42;;;;;;;3.10;1.63;;;;;;;9.03;100.00;101473.03;4973602;28;20030;-69
2023/01/04 04:18:07;;;;;;;3.50;2.08;;;;;;;9.05;100.00;101471.78;4974466;28;20049;-68
2023/01/04 04:20:33;;;;;;;2.58;1.90;;;;;;;9.05;100.00;101463.69;4974089;28;20046;-69
2023/01/04 04:22:58;;;;;;;3.83;2.40;;;;;;;9.05;100.00;101455.59;4974207;28;20023;-69
2023/01/04 04:25:23;;;;;;;3.70;2.10;;;;;;;9.05;100.00;101455.59;4974253;28;20026;-69
2023/01/04 04:27:49;;;;;;;4.07;1.85;;;;;;;9.06;100.00;101451.03;4973732;28;20109;-68
2023/01/04 04:30:14;;;;;;;4.03;2.30;;;;;;;9.08;100.00;101456.25;4973438;28;20030;-69
2023/01/04 04:32:40;;;;;;;5.00;2.33;;;;;;;9.08;100.00;101445.44;4974034;28;20031;-69
2023/01/04 04:35:05;;;;;;;3.05;2.30;;;;;;;9.09;100.00;101442.53;4974269;28;20066;-68
2023/01/04 04:37:31;;;;;;;3.42;2.13;;;;;;;9.13;100.00;101418.66;4972968;28;20046;-69
2023/01/04 04:39:57;;;;;;;3.88;2.20;;;;;;;9.15;100.00;101427.38;4974229;28;20038;-69
2023/01/04 04:42:23;;;;;;;4.22;2.38;;;;;;;9.16;100.00;101431.75;4974102;28;20031;-68
2023/01/04 04:44:48;;;;;;;5.22;2.45;;;;;;;9.19;100.00;101423.25;4973144;28;20031;-69
2023/01/04 04:47:13;;;;;;;4.05;2.28;;;;;;;9.22;100.00;101425.53;4973334;28;20050;-69
2023/01/04 04:49:38;;;;;;;4.38;2.03;;;;;;;9.25;100.00;101413.50;4973856;28;20601;-69
2023/01/04 04:52:04;;;;;;;4.85;2.40;;;;;;;9.25;100.00;101419.72;4974298;28;20039;-69
2023/01/04 04:54:29;;;;;;;3.22;2.22;;;;;;;9.30;100.00;101416.44;4973364;28;20038;-69
2023/01/04 04:56:54;;;;;;;4.03;1.92;;;;;;;9.36;100.00;101413.75;4971418;28;20062;-69
2023/01/04 04:59:20;;;;;;;4.68;2.40;;;;;;;9.35;100.00;101422.06;4971452;28;20046;-68
2023/01/04 05:01:45;;;;;;;5.43;2.28;;;;;;;9.39;100.00;101407.94;4971345;28;20085;-69
2023/01/04 05:04:15;;;;;;;4.45;2.20;;;;;;;9.38;100.00;101403.56;4972514;28;20034;-69
2023/01/04 05:06:42;;;;;;;3.88;2.20;;;;;;;9.42;100.00;101412.13;4972737;28;20113;-68
2023/01/04 05:09:07;;;;;;;4.38;2.33;;;;;;;9.42;100.00;101411.28;4973820;28;20039;-69
2023/01/04 05:14:16;;;;;;;6.40;2.70;;;;;;;9.46;100.00;101401.72;4973133;28;20096;-69
2023/01/04 05:16:42;;;;;;;4.63;2.15;;;;;;;9.49;100.00;101404.84;4973040;28;20031;-68
2023/01/04 05:19:07;;;;;;;4.97;2.17;;;;;;;9.52;100.00;101398.22;4973691;28;20459;-69
2023/01/04 05:21:32;;;;;;;5.45;2.40;;;;;;;9.52;100.00;101382.00;4972388;28;20178;-69
2023/01/04 05:23:57;;;;;;;5.38;2.13;;;;;;;9.52;100.00;101374.72;4973900;28;20023;-69
2023/01/04 05:26:23;;;;;;;6.22;2.20;;;;;;;9.57;100.00;101393.00;4972530;28;20035;-69
2023/01/04 05:28:48;;;;;;;4.15;2.20;;;;;;;9.57;100.00;101385.75;4972812;28;20039;-69
2023/01/04 05:31:13;;;;;;;4.10;2.30;;;;;;;9.61;100.00;101388.88;4973644;28;20031;-69
2023/01/04 05:33:39;;;;;;;4.55;2.20;;;;;;;9.62;100.00;101374.34;4973358;28;20115;-69
2023/01/04 05:36:04;;;;;;;6.15;2.20;;;;;;;9.64;100.00;101371.44;4972741;28;20054;-68
2023/01/04 05:38:30;;;;;;;5.72;2.28;;;;;;;9.65;100.00;101376.63;4973249;28;20070;-69
2023/01/04 05:40:55;;;;;;;3.47;1.90;;;;;;;9.71;100.00;101367.69;4973475;28;20035;-68
2023/01/04 05:43:22;;;;;;;6.20;2.03;;;;;;;9.71;100.00;101370.41;4972727;28;20086;-69
2023/01/04 05:45:51;;;;;;;3.42;1.65;;;;;;;9.78;100.00;101374.97;4972809;28;20518;-68
2023/01/04 05:48:17;;;;;;;2.28;1.67;;;;;;;9.73;100.00;101372.88;4972689;28;20031;-69
2023/01/04 05:50:44;;;;;;;4.22;2.00;;;;;;;9.74;100.00;101369.16;4973576;28;20038;-68
2023/01/04 05:53:10;;;;;;;3.85;1.90;;;;;;;9.74;100.00;101367.28;4973413;28;20035;-68
2023/01/04 05:55:35;;;;;;;5.53;2.30;;;;;;;9.76;100.00;101359.78;4973224;28;20031;-69
2023/01/04 05:58:01;;;;;;;5.10;2.00;;;;;;;9.75;100.00;101346.47;4972939;28;20121;-69
2023/01/04 06:00:27;;;;;;;3.83;1.80;;;;;;;9.75;100.00;101352.72;4969485;28;20467;-69
2023/01/04 06:02:54;;;;;;;6.15;1.80;;;;;;;9.72;100.00;101350.44;4972916;28;20059;-69
2023/01/04 06:05:19;;;;;;;6.20;1.83;;;;;;;9.78;100.00;101350.66;4973253;28;20031;-69
2023/01/04 06:07:45;;;;;;;6.60;1.90;;;;;;;9.83;100.00;101361.66;4971632;28;20372;-69
2023/01/04 06:10:11;;;;;;;4.28;1.70;;;;;;;9.85;100.00;101373.09;4973243;28;20085;-69
2023/01/04 06:12:37;;;;;;;5.38;1.80;;;;;;;9.87;100.00;101363.75;4971661;28;20441;-69
2023/01/04 06:15:04;;;;;;;5.53;1.90;;;;;;;9.89;100.00;101358.16;4972477;28;20039;-69
2023/01/04 06:17:30;;;;;;;3.70;1.65;;;;;;;9.91;100.00;101364.16;4972184;28;20042;-68
2023/01/04 06:19:55;;;;;;;4.30;1.80;;;;;;;9.93;100.00;101368.34;4972933;28;20035;-68
2023/01/04 06:22:21;;;;;;;4.38;1.63;;;;;;;9.90;100.00;101371.44;4973116;28;20035;-69
2023/01/04 06:24:46;;;;;;;2.58;1.45;;;;;;;9.90;100.00;101371.44;4972833;28;20033;-68
2023/01/04 06:27:12;;;;;;;3.70;1.75;;;;;;;9.90;100.00;101366.03;4972442;28;20106;-69
2023/01/04 06:29:37;;;;;;;4.30;1.95;;;;;;;9.91;100.00;101361.47;4972062;28;20037;-69
2023/01/04 06:32:03;;;;;;;6.70;1.77;;;;;;;9.91;100.00;101347.94;4972799;28;20035;-69
2023/01/04 06:34:28;;;;;;;2.28;1.45;;;;;;;9.88;100.00;101343.78;4976221;28;20030;-69
2023/01/04 06:36:53;;;;;;;7.03;2.15;;;;;;;9.89;100.00;101339.22;4975716;28;20386;-69
2023/01/04 06:39:19;;;;;;;4.18;1.60;;;;;;;9.88;100.00;101334.84;4975177;28;20038;-69
2023/01/04 06:41:44;;;;;;;3.97;1.83;;;;;;;9.87;100.00;101350.25;4976490;28;20030;-69
2023/01/04 06:44:09;;;;;;;4.00;1.80;;;;;;;9.89;100.00;101347.34;4975500;28;20027;-69
2023/01/04 06:46:35;;;;;;;1.90;1.70;;;;;;;9.88;100.00;101351.88;4975294;28;20152;-69
2023/01/04 06:49:00;;;;;;;3.10;1.50;;;;;;;9.90;100.00;101365.19;4976211;28;20026;-69
2023/01/04 06:51:25;;;;;;;2.10;1.40;;;;;;;9.98;100.00;101367.72;4975974;28;20467;-69
2023/01/04 06:53:51;;;;;;;2.08;1.58;;;;;;;9.96;100.00;101350.84;4974900;28;20034;-69
2023/01/04 06:56:16;;;;;;;3.28;1.38;;;;;;;9.95;100.00;101357.31;4974827;28;20054;-69
2023/01/04 06:58:41;;;;;;;4.65;1.70;;;;;;;9.96;100.00;101345.44;4973561;28;20113;-69
2023/01/04 07:01:07;;;;;;;3.97;1.60;;;;;;;9.99;100.00;101342.31;4973599;28;20134;-69
2023/01/04 07:03:33;;;;;;;4.53;1.80;;;;;;;10.02;100.00;101344.59;4975734;28;20081;-69
2023/01/04 07:05:58;;;;;;;1.95;1.40;;;;;;;10.05;100.00;101346.88;4975665;28;20090;-69
2023/01/04 07:08:24;;;;;;;3.60;1.30;;;;;;;10.08;100.00;101351.06;4975072;28;20072;-69
2023/01/04 07:10:50;;;;;;;2.15;1.40;;;;;;;10.07;100.00;101344.81;4975641;28;20034;-69
2023/01/04 07:13:16;;;;;;;3.45;1.50;;;;;;;10.10;100.00;101339.00;4974762;28;20038;-69
2023/01/04 07:15:41;;;;;;;1.88;1.50;;;;;;;10.11;100.00;101329.84;4975609;28;20030;-69
2023/01/04 07:18:10;;;;;;;2.00;1.33;;;;;;;10.19;100.00;101330.66;4974857;28;20038;-69
2023/01/04 07:20:36;;;;;;;2.75;1.33;;;;;;;10.25;100.00;101318.97;4975531;28;20031;-69
2023/01/04 07:23:02;;;;;;;2.88;1.65;;;;;;;10.27;100.00;101330.44;4975689;28;20487;-68
2023/01/04 07:25:27;;;;;;;3.70;1.40;;;;;;;10.30;100.00;101321.91;4974291;28;20026;-69
2023/01/04 07:27:53;;;;;;;2.15;1.30;;;;;;;10.30;100.00;101319.19;4974901;28;20477;-69
2023/01/04 07:30:20;;;;;;;3.22;1.30;;;;;;;10.33;100.00;101304.44;4979105;28;20023;-69
2023/01/04 07:32:46;;;;;;;3.13;1.30;;;;;;;10.34;100.00;101312.34;4980774;28;20038;-71
2023/01/04 07:35:11;;;;;;;3.88;1.30;;;;;;;10.42;100.00;101314.81;4975406;28;20459;-72
2023/01/04 07:37:36;;;;;;;4.03;1.20;;;;;;;10.39;100.00;101307.13;4974588;28;20534;-70
2023/01/04 07:40:02;;;;;;;3.90;1.23;;;;;;;10.41;100.00;101301.50;4975291;28;20121;-71
2023/01/04 07:42:28;;;;;;;2.72;1.30;;;;;;;10.43;100.00;101304.81;4973625;28;20039;-70
2023/01/04 07:44:53;;;;;;;4.72;1.27;;;;;;;10.43;100.00;101308.38;4974419;28;20035;-70
2023/01/04 07:47:18;;;;;;;3.30;1.20;;;;;;;10.46;100.00;101320.63;4974601;28;20097;-70
2023/01/04 07:49:47;;;;;;;3.35;1.10;;;;;;;10.49;100.00;101305.84;4974668;28;20038;-70
2023/01/04 07:52:12;;;;;;;4.05;1.30;;;;;;;10.53;100.00;101304.38;4975137;28;20065;-70
2023/01/04 07:54:38;;;;;;;4.97;1.55;;;;;;;10.53;100.00;101293.56;4974537;28;20081;-70
2023/01/04 07:57:03;;;;;;;4.80;1.60;;;;;;;10.55;100.00;101292.31;4972209;28;20537;-70
2023/01/04 07:59:28;;;;;;;3.38;1.30;;;;;;;10.61;100.00;101280.63;4974271;28;20042;-70
2023/01/04 08:01:54;;;;;;;4.32;1.20;;;;;;;10.62;100.00;101289.56;4972248;28;20035;-69
2023/01/04 08:04:22;;;;;;;5.32;1.30;;;;;;;10.63;100.00;101304.78;4975090;28;20116;-72
2023/01/04 08:06:48;;;;;;;2.55;1.30;;;;;;;10.61;100.00;101280.63;4973721;28;20038;-70
2023/01/04 08:09:13;;;;;;;4.07;1.40;;;;;;;10.65;100.00;101283.72;4970487;28;20056;-70
2023/01/04 08:11:39;;;;;;;5.18;1.50;;;;;;;10.65;100.00;101302.66;4973390;28;20038;-69
2023/01/04 08:14:04;;;;;;;4.57;1.50;;;;;;;10.66;100.00;101281.84;4973482;28;20031;-70
2023/01/04 08:16:33;;;;;;;5.55;1.55;;;;;;;10.70;100.00;101297.44;4973154;28;20050;-70
2023/01/04 08:19:00;;;;;;;2.33;1.30;;;;;;;10.69;100.00;101303.91;4973869;28;20026;-70
2023/01/04 08:21:28;;;;;;;4.80;1.40;;;;;;;10.70;100.00;101283.06;4974128;28;20031;-70
2023/01/04 08:23:54;;;;;;;6.13;1.42;;;;;;;10.73;100.00;101305.13;4972640;28;20039;-70
2023/01/04 08:26:22;;;;;;;3.70;1.75;;;;;;;10.74;100.00;101306.78;4974071;28;20038;-70
2023/01/04 08:28:50;;;;;;;5.18;1.55;;;;;;;10.75;100.00;101311.16;4971886;28;20034;-76
2023/01/04 08:31:19;;;;;;;5.18;1.33;;;;;;;10.77;100.00;101309.06;4973717;28;20121;-72
2023/01/04 08:33:45;;;;;;;7.32;1.77;;;;;;;10.79;100.00;101309.69;4973580;28;20116;-69
2023/01/04 08:36:28;;;;;;;4.57;1.50;;;;;;;10.81;100.00;101310.31;4973970;28;20148;-70
2023/01/04 08:38:59;;;;;;;4.32;1.65;;;;;;;10.84;100.00;101319.88;4954669;28;20035;-69
2023/01/04 08:41:25;;;;;;;7.23;1.80;;;;;;;10.84;100.00;101316.31;4954729;28;20031;-70
2023/01/04 08:43:53;;;;;;;4.65;1.50;;;;;;;10.83;100.00;101318.22;4961681;28;20784;-73
2023/01/04 08:46:18;;;;;;;4.28;1.52;;;;;;;10.82;100.00;101319.25;4972507;28;20050;-71
2023/01/04 08:48:44;;;;;;;5.47;1.70;;;;;;;10.83;100.00;101326.34;4972641;28;20097;-71
2023/01/04 08:51:12;;;;;;;7.22;1.83;;;;;;;10.92;100.00;101335.06;4974344;28;20037;-71
2023/01/04 08:53:37;;;;;;;6.70;1.80;;;;;;;10.89;100.00;101320.06;4973498;28;20613;-70
2023/01/04 08:56:03;;;;;;;6.50;1.63;;;;;;;10.89;100.00;101313.81;4970388;28;20027;-71
2023/01/04 08:58:30;;;;;;;5.50;1.38;;;;;;;10.91;100.00;101327.97;4970959;28;20442;-71
2023/01/04 09:01:04;;;;;;;4.45;1.35;;;;;;;11.00;100.00;101326.66;4971371;28;20046;-70
2023/01/04 09:03:30;;;;;;;5.07;1.45;;;;;;;11.04;100.00;101324.38;4972894;28;20058;-71
2023/01/04 09:06:08;;;;;;;5.35;1.60;;;;;;;11.07;100.00;101327.47;4971937;28;20073;-71
2023/01/04 09:08:35;;;;;;;5.20;1.80;;;;;;;11.10;100.00;101318.09;4973144;28;20041;-70
2023/01/04 09:11:12;;;;;;;6.00;1.42;;;;;;;11.09;100.00;101314.53;4973539;28;20038;-70
2023/01/04 09:13:38;;;;;;;5.38;1.38;;;;;;;11.11;100.00;101327.84;4970491;28;20034;-71
2023/01/04 09:16:06;;;;;;;5.82;1.65;;;;;;;11.11;100.00;101323.28;4972343;28;20471;-70
2023/01/04 09:18:32;;;;;;;3.22;1.40;;;;;;;11.11;100.00;101323.28;4973331;28;20034;-71
2023/01/04 09:21:00;;;;;;;4.88;1.70;;;;;;;11.10;100.00;101321.63;4972991;28;20034;-71
2023/01/04 09:23:27;;;;;;;2.75;1.30;;;;;;;11.10;100.00;101310.78;4971981;28;20031;-70
2023/01/04 09:25:53;;;;;;;6.95;1.40;;;;;;;11.11;100.00;101312.44;4971027;28;20038;-70
2023/01/04 09:28:18;;;;;;;3.00;1.55;;;;;;;11.11;100.00;101314.31;4972463;28;20033;-70
2023/01/04 09:30:43;;;;;;;4.07;1.50;;;;;;;11.09;100.00;101319.94;4972686;28;20035;-72
2023/01/04 09:33:09;;;;;;;3.63;1.30;;;;;;;11.10;100.00;101321.63;4971514;28;20039;-72
2023/01/04 09:35:34;;;;;;;6.40;1.52;;;;;;;11.05;100.00;101326.88;4971649;28;20041;-73
2023/01/04 09:38:00;;;;;;;5.75;1.48;;;;;;;11.08;100.00;101320.16;4973297;28;20030;-76
2023/01/04 09:40:58;;;;;;;5.13;1.60;;;;;;;11.04;100.00;101325.19;4972952;28;20085;-70
2023/01/04 09:43:26;;;;;;;3.92;1.67;;;;;;;11.00;100.00;101321.25;4973045;28;20039;-71
2023/01/04 09:45:56;;;;;;;5.20;1.40;;;;;;;10.95;100.00;101313.78;4972382;28;20059;-70
2023/01/04 09:48:27;;;;;;;4.15;1.52;;;;;;;10.91;100.00;101311.72;4972271;28;20043;-70
2023/01/04 09:51:04;;;;;;;4.45;1.70;;;;;;;10.96;100.00;101322.72;4973250;28;20077;-70
2023/01/04 09:53:45;;;;;;;4.97;1.65;;;;;;;10.92;100.00;101313.38;4973730;28;20463;-70
2023/01/04 09:56:25;;;;;;;;;;;;;;;11.02;100.00;101329.16;4972954;28;20039;-70
2023/01/04 09:58:52;;;;;;;6.45;1.77;;;;;;;10.90;100.00;101310.91;4973557;28;19917;-70
2023/01/04 10:01:22;;;;;;;6.13;1.60;;;;;;;10.91;100.00;101320.66;4971254;28;20096;-70
2023/01/04 10:04:23;;;;;;;4.93;1.90;;;;;;;10.93;100.00;101304.19;4971688;28;20090;-70
2023/01/04 10:06:49;;;;;;;8.98;1.88;;;;;;;10.91;100.00;101290.88;4966023;28;20043;-71
2023/01/04 10:09:15;;;;;;;5.28;1.98;;;;;;;10.92;100.00;101297.97;4977014;28;20034;-71
2023/01/04 10:11:53;;;;;;;5.88;1.83;;;;;;;10.91;100.00;101300.88;4975541;28;20415;-70
2023/01/04 10:14:49;;;;;;;5.85;2.33;;;;;;;10.93;100.00;101305.03;4970992;28;20554;-70
2023/01/04 10:17:14;;;;;;;4.85;1.90;;;;;;;10.87;100.00;101300.50;4962858;28;20466;-70
2023/01/04 10:20:01;;;;;;;6.65;2.05;;;;;;;10.86;100.00;101298.00;4975359;28;20042;-70
2023/01/04 10:22:44;;;;;;;5.32;1.90;;;;;;;10.89;100.00;101292.97;4976536;28;20494;-70
2023/01/04 10:25:18;;;;;;;6.65;2.25;;;;;;;10.86;100.00;101293.41;4976000;28;20147;-70
2023/01/04 10:28:02;;;;;;;7.50;2.30;;;;;;;10.88;100.00;101302.13;4975118;28;20034;-70
2023/01/04 10:30:45;;;;;;;5.20;1.92;;;;;;;10.90;100.00;101304.63;4976676;28;20135;-70
2023/01/04 10:33:14;;;;;;;5.43;2.10;;;;;;;10.88;100.00;101298.63;4974083;28;20039;-70
2023/01/04 10:35:42;;;;;;;6.10;2.10;;;;;;;10.88;100.00;101295.91;4974915;28;20030;-71
2023/01/04 10:38:22;;;;;;;6.50;1.90;;;;;;;10.88;100.00;101306.72;4976315;28;20027;-71
2023/01/04 10:40:49;;;;;;;5.10;1.73;;;;;;;10.85;100.00;101293.63;4975806;28;20034;-73
2023/01/04 10:43:20;;;;;;;6.65;1.90;;;;;;;10.85;100.00;101296.34;4976307;28;20035;-76
2023/01/04 10:45:56;;;;;;;8.50;2.03;;;;;;;10.84;100.00;101287.41;4976101;28;20058;-71
2023/01/04 10:48:49;;;;;;;4.60;2.10;;;;;;;10.87;100.00;101283.41;4974465;28;20023;-72
2023/01/04 10:51:21;;;;;;;5.60;2.25;;;;;;;10.85;100.00;101280.09;4975370;28;20031;-72
2023/01/04 10:53:51;;;;;;;;;;;;;;;10.93;100.00;101277.97;4961180;28;20078;-71
2023/01/04 10:56:44;;;;;;;7.07;2.20;;;;;;;10.89;100.00;101278.63;4956876;28;19914;-72
2023/01/04 10:59:25;;;;;;;4.28;1.77;;;;;;;10.86;100.00;101285.28;4968349;28;20771;-72
2023/01/04 11:01:52;;;;;;;4.45;1.77;;;;;;;10.87;100.00;101278.00;4973647;28;20026;-73
2023/01/04 11:04:31;;;;;;;4.07;1.80;;;;;;;10.88;100.00;101271.53;4975968;28;20459;-72
2023/01/04 11:07:13;;;;;;;4.22;1.50;;;;;;;10.87;100.00;101275.28;4975753;28;20039;-73
2023/01/04 11:09:43;;;;;;;6.85;1.63;;;;;;;10.86;100.00;101277.16;4973536;28;20489;-72
2023/01/04 11:12:12;;;;;;;5.20;1.63;;;;;;;10.86;100.00;101277.16;4975997;28;20027;-71
2023/01/04 11:14:37;;;;;;;3.15;1.52;;;;;;;10.86;100.00;101281.75;4974737;28;20034;-73
2023/01/04 11:17:06;;;;;;;4.72;1.50;;;;;;;10.91;100.00;101279.22;4975924;28;20466;-72
2023/01/04 11:19:33;;;;;;;4.20;1.55;;;;;;;10.89;100.00;101279.44;4974357;28;20038;-72
2023/01/04 11:22:01;;;;;;;2.65;1.40;;;;;;;10.86;100.00;101293.41;4975716;28;20031;-72
2023/01/04 11:24:31;;;;;;;1.58;1.30;;;;;;;10.88;100.00;101272.34;4976025;28;20110;-71
2023/01/04 11:27:03;;;;;;;4.13;1.20;;;;;;;10.85;100.00;101282.81;4976198;28;20031;-74
2023/01/04 11:29:43;;;;;;;2.13;1.42;;;;;;;10.90;100.00;101278.41;4990210;28;20038;-72
2023/01/04 11:32:31;;;;;;;2.33;1.10;;;;;;;10.90;100.00;101286.53;4986454;28;20382;-72
2023/01/04 11:34:56;;;;;;;2.00;1.20;;;;;;;10.87;100.00;101284.25;4975503;28;20033;-72
2023/01/04 11:37:33;;;;;;;2.10;1.00;;;;;;;10.87;100.00;101275.28;4971973;28;20446;-72
2023/01/04 11:40:19;;;;;;;2.00;1.00;;;;;;;10.93;100.00;101271.72;4974208;28;20464;-73
2023/01/04 11:43:08;;;;;;;2.17;1.02;;;;;;;10.96;100.00;101282.94;4972276;28;20030;-76
2023/01/04 11:45:34;;;;;;;2.03;1.02;;;;;;;10.91;100.00;101284.63;4975340;28;20051;-75
2023/01/04 11:47:59;;;;;;;2.00;0.93;;;;;;;10.89;100.00;101284.03;4974129;28;20117;-73
2023/01/04 11:50:43;;;;;;;1.13;0.82;;;;;;;10.93;100.00;101282.53;4973881;28;20126;-71
2023/01/04 11:53:28;;;;;;;0.90;0.73;;;;;;;10.92;100.00;101280.91;4974862;28;20031;-73
2023/01/04 11:56:19;;;;;;;1.17;0.80;;;;;;;10.88;100.00;101285.06;4973807;28;20382;-74
2023/01/04 11:59:08;;;;;;;1.42;0.93;;;;;;;10.90;100.00;101300.06;4972453;28;20077;-70
2023/01/04 12:01:42;;;;;;;2.92;0.77;;;;;;;10.92;100.00;101302.56;4972394;28;20070;-69
2023/01/04 12:04:13;;;;;;;1.55;0.70;;;;;;;10.92;100.00;101284.41;4974837;28;20026;-69
2023/01/04 12:06:52;;;;;;;1.42;0.73;;;;;;;10.91;100.00;101273.81;4974904;28;20127;-69
2023/01/04 12:09:18;;;;;;;1.00;0.68;;;;;;;10.91;100.00;101280.03;4974008;28;20030;-69
2023/01/04 12:11:50;;;;;;;1.92;0.68;;;;;;;10.92;100.00;101273.59;4974597;28;20038;-70
2023/01/04 12:14:28;;;;;;;1.05;0.60;;;;;;;10.95;100.00;101285.88;4964684;28;20121;-70
2023/01/04 12:16:58;;;;;;;1.02;0.68;;;;;;;10.96;100.00;101287.53;4974709;28;20451;-74